sensor_id;sensor_type;location;lat;lon;timestamp;pressure;altitude;pressure_sealevel;temperature;humidity
78584;BME280;67880;46.082;18.234;2023-10-31T00:00:03;98717.47;;;15.72;60.72
78584;BME280;67880;46.082;18.234;2023-10-31T00:00:35;98718.25;;;15.79;59.26
78584;BME280;67880;46.082;18.234;2023-10-31T00:01:08;98711.78;;;15.80;59.52
78584;BME280;67880;46.082;18.234;2023-10-31T00:01:40;98716.97;;;15.81;59.84
78584;BME280;67880;46.082;18.234;2023-10-31T00:02:12;98720.28;;;15.83;59.83
78584;BME280;67880;46.082;18.234;2023-10-31T00:02:44;98725.50;;;15.85;59.57
78584;BME280;67880;46.082;18.234;2023-10-31T00:03:16;98723.00;;;15.83;59.07
78584;BME280;67880;46.082;18.234;2023-10-31T00:03:48;98715.91;;;15.82;59.26
78584;BME280;67880;46.082;18.234;2023-10-31T00:04:20;98720.91;;;15.85;59.61
78584;BME280;67880;46.082;18.234;2023-10-31T00:04:52;98728.03;;;15.80;60.10
78584;BME280;67880;46.082;18.234;2023-10-31T00:05:24;98724.25;;;15.81;60.25
78584;BME280;67880;46.082;18.234;2023-10-31T00:05:56;98718.22;;;15.85;59.61
78584;BME280;67880;46.082;18.234;2023-10-31T00:06:28;98721.31;;;15.89;59.26
78584;BME280;67880;46.082;18.234;2023-10-31T00:07:00;98720.09;;;15.85;59.50
78584;BME280;67880;46.082;18.234;2023-10-31T00:07:32;98732.78;;;15.84;59.19
78584;BME280;67880;46.082;18.234;2023-10-31T00:08:04;98727.56;;;15.83;59.38
78584;BME280;67880;46.082;18.234;2023-10-31T00:08:36;98726.28;;;15.92;56.34
78584;BME280;67880;46.082;18.234;2023-10-31T00:09:09;98718.47;;;16.09;54.05
78584;BME280;67880;46.082;18.234;2023-10-31T00:09:42;98728.44;;;16.15;54.08
78584;BME280;67880;46.082;18.234;2023-10-31T00:10:14;98729.25;;;16.15;54.43
78584;BME280;67880;46.082;18.234;2023-10-31T00:10:46;98735.72;;;16.14;55.14
78584;BME280;67880;46.082;18.234;2023-10-31T00:11:18;98724.91;;;16.14;55.45
78584;BME280;67880;46.082;18.234;2023-10-31T00:11:50;98723.84;;;16.15;55.27
78584;BME280;67880;46.082;18.234;2023-10-31T00:12:23;98727.47;;;16.34;52.72
78584;BME280;67880;46.082;18.234;2023-10-31T00:12:55;98725.81;;;16.33;53.42
78584;BME280;67880;46.082;18.234;2023-10-31T00:13:27;98731.22;;;16.33;53.29
78584;BME280;67880;46.082;18.234;2023-10-31T00:13:59;98729.34;;;16.34;53.24
78584;BME280;67880;46.082;18.234;2023-10-31T00:14:31;98731.84;;;16.35;52.59
78584;BME280;67880;46.082;18.234;2023-10-31T00:15:03;98724.13;;;16.39;51.85
78584;BME280;67880;46.082;18.234;2023-10-31T00:15:35;98720.75;;;16.43;51.93
78584;BME280;67880;46.082;18.234;2023-10-31T00:16:07;98716.75;;;16.46;52.23
78584;BME280;67880;46.082;18.234;2023-10-31T00:16:39;98719.25;;;16.47;54.10
78584;BME280;67880;46.082;18.234;2023-10-31T00:17:11;98711.13;;;16.47;53.45
78584;BME280;67880;46.082;18.234;2023-10-31T00:17:43;98713.81;;;16.47;53.20
78584;BME280;67880;46.082;18.234;2023-10-31T00:18:15;98716.53;;;16.47;53.84
78584;BME280;67880;46.082;18.234;2023-10-31T00:18:47;98713.81;;;16.47;53.67
78584;BME280;67880;46.082;18.234;2023-10-31T00:19:19;98720.06;;;16.48;53.32
78584;BME280;67880;46.082;18.234;2023-10-31T00:19:51;98710.06;;;16.48;52.37
78584;BME280;67880;46.082;18.234;2023-10-31T00:20:23;98714.66;;;16.48;53.46
78584;BME280;67880;46.082;18.234;2023-10-31T00:20:55;98707.22;;;16.43;53.20
78584;BME280;67880;46.082;18.234;2023-10-31T00:21:27;98713.22;;;16.45;53.53
78584;BME280;67880;46.082;18.234;2023-10-31T00:21:59;98704.28;;;16.45;53.70
78584;BME280;67880;46.082;18.234;2023-10-31T00:22:32;98713.22;;;16.45;53.25
78584;BME280;67880;46.082;18.234;2023-10-31T00:23:04;98715.09;;;16.45;54.16
78584;BME280;67880;46.082;18.234;2023-10-31T00:23:48;98711.16;;;16.41;55.08
78584;BME280;67880;46.082;18.234;2023-10-31T00:24:20;98710.22;;;16.29;55.78
78584;BME280;67880;46.082;18.234;2023-10-31T00:24:52;98710.22;;;16.29;56.14
78584;BME280;67880;46.082;18.234;2023-10-31T00:25:24;98709.38;;;16.28;55.56
78584;BME280;67880;46.082;18.234;2023-10-31T00:25:56;98704.84;;;16.22;55.32
78584;BME280;67880;46.082;18.234;2023-10-31T00:26:28;98710.94;;;16.17;55.68
78584;BME280;67880;46.082;18.234;2023-10-31T00:27:00;98712.38;;;16.20;55.56
78584;BME280;67880;46.082;18.234;2023-10-31T00:27:32;98702.13;;;16.22;53.82
78584;BME280;67880;46.082;18.234;2023-10-31T00:28:04;98706.31;;;16.24;54.21
78584;BME280;67880;46.082;18.234;2023-10-31T00:28:36;98700.88;;;16.24;54.12
78584;BME280;67880;46.082;18.234;2023-10-31T00:29:08;98697.31;;;16.31;51.24
78584;BME280;67880;46.082;18.234;2023-10-31T00:29:40;98690.19;;;16.36;51.72
78584;BME280;67880;46.082;18.234;2023-10-31T00:30:12;98695.75;;;16.41;51.19
78584;BME280;67880;46.082;18.234;2023-10-31T00:30:44;98698.63;;;16.46;51.08
78584;BME280;67880;46.082;18.234;2023-10-31T00:31:16;98697.81;;;16.46;51.35
78584;BME280;67880;46.082;18.234;2023-10-31T00:31:48;98691.31;;;16.47;52.08
78584;BME280;67880;46.082;18.234;2023-10-31T00:32:20;98691.59;;;16.39;52.74
78584;BME280;67880;46.082;18.234;2023-10-31T00:32:52;98689.97;;;16.38;52.79
78584;BME280;67880;46.082;18.234;2023-10-31T00:33:24;98682.66;;;16.38;52.08
78584;BME280;67880;46.082;18.234;2023-10-31T00:33:56;98688.78;;;16.52;49.07
78584;BME280;67880;46.082;18.234;2023-10-31T00:34:29;98684.31;;;16.64;48.26
78584;BME280;67880;46.082;18.234;2023-10-31T00:35:01;98687.09;;;16.83;47.42
78584;BME280;67880;46.082;18.234;2023-10-31T00:35:33;98681.84;;;16.88;46.99
78584;BME280;67880;46.082;18.234;2023-10-31T00:36:05;98674.28;;;16.90;47.64
78584;BME280;67880;46.082;18.234;2023-10-31T00:36:38;98679.72;;;16.90;48.90
78584;BME280;67880;46.082;18.234;2023-10-31T00:37:10;98679.31;;;16.86;50.02
78584;BME280;67880;46.082;18.234;2023-10-31T00:37:42;98673.53;;;16.83;50.76
78584;BME280;67880;46.082;18.234;2023-10-31T00:38:14;98675.84;;;16.79;51.27
78584;BME280;67880;46.082;18.234;2023-10-31T00:38:46;98676.16;;;16.71;51.35
78584;BME280;67880;46.082;18.234;2023-10-31T00:39:18;98672.63;;;16.64;51.53
78584;BME280;67880;46.082;18.234;2023-10-31T00:39:49;98671.81;;;16.63;50.61
78584;BME280;67880;46.082;18.234;2023-10-31T00:40:22;98675.69;;;16.74;49.79
78584;BME280;67880;46.082;18.234;2023-10-31T00:40:54;98671.56;;;16.71;50.09
78584;BME280;67880;46.082;18.234;2023-10-31T00:41:26;98678.66;;;16.66;51.15
78584;BME280;67880;46.082;18.234;2023-10-31T00:41:58;98670.53;;;16.66;50.02
78584;BME280;67880;46.082;18.234;2023-10-31T00:42:30;98678.66;;;16.66;50.65
78584;BME280;67880;46.082;18.234;2023-10-31T00:43:02;98676.78;;;16.66;51.27
78584;BME280;67880;46.082;18.234;2023-10-31T00:43:34;98679.72;;;16.65;51.03
78584;BME280;67880;46.082;18.234;2023-10-31T00:44:06;98673.91;;;16.61;50.98
78584;BME280;67880;46.082;18.234;2023-10-31T00:44:38;98667.28;;;16.57;51.73
78584;BME280;67880;46.082;18.234;2023-10-31T00:45:10;98666.28;;;16.51;51.52
78584;BME280;67880;46.082;18.234;2023-10-31T00:45:42;98661.75;;;16.45;51.71
78584;BME280;67880;46.082;18.234;2023-10-31T00:46:14;98662.81;;;16.44;53.69
78584;BME280;67880;46.082;18.234;2023-10-31T00:46:46;98662.41;;;16.41;53.87
78584;BME280;67880;46.082;18.234;2023-10-31T00:47:18;98663.28;;;16.35;53.60
78584;BME280;67880;46.082;18.234;2023-10-31T00:47:50;98668.09;;;16.33;53.35
78584;BME280;67880;46.082;18.234;2023-10-31T00:48:22;98658.94;;;16.34;53.19
78584;BME280;67880;46.082;18.234;2023-10-31T00:48:54;98663.16;;;16.30;53.85
78584;BME280;67880;46.082;18.234;2023-10-31T00:49:27;98659.44;;;16.24;54.19
78584;BME280;67880;46.082;18.234;2023-10-31T00:49:59;98663.03;;;16.18;54.84
78584;BME280;67880;46.082;18.234;2023-10-31T00:50:31;98669.69;;;16.15;54.77
78584;BME280;67880;46.082;18.234;2023-10-31T00:51:04;98664.91;;;16.17;55.01
78584;BME280;67880;46.082;18.234;2023-10-31T00:51:36;98663.84;;;16.18;54.01
78584;BME280;67880;46.082;18.234;2023-10-31T00:52:08;98667.22;;;16.14;53.73
78584;BME280;67880;46.082;18.234;2023-10-31T00:52:40;98662.84;;;16.13;53.54
78584;BME280;67880;46.082;18.234;2023-10-31T00:53:12;98658.03;;;16.15;52.91
78584;BME280;67880;46.082;18.234;2023-10-31T00:53:46;98651.31;;;16.24;51.67
78584;BME280;67880;46.082;18.234;2023-10-31T00:54:18;98654.41;;;16.28;51.71
78584;BME280;67880;46.082;18.234;2023-10-31T00:54:51;98651.69;;;16.28;51.75
78584;BME280;67880;46.082;18.234;2023-10-31T00:55:23;98646.94;;;16.23;53.01
78584;BME280;67880;46.082;18.234;2023-10-31T00:55:54;98651.50;;;16.22;52.92
78584;BME280;67880;46.082;18.234;2023-10-31T00:56:26;98657.78;;;16.23;52.21
78584;BME280;67880;46.082;18.234;2023-10-31T00:56:58;98655.69;;;16.25;52.18
78584;BME280;67880;46.082;18.234;2023-10-31T00:57:30;98650.63;;;16.29;51.94
78584;BME280;67880;46.082;18.234;2023-10-31T00:58:02;98652.09;;;16.31;52.35
78584;BME280;67880;46.082;18.234;2023-10-31T00:58:34;98652.31;;;16.30;52.86
78584;BME280;67880;46.082;18.234;2023-10-31T00:59:06;98640.25;;;16.25;52.47
78584;BME280;67880;46.082;18.234;2023-10-31T00:59:38;98643.38;;;16.22;53.56
78584;BME280;67880;46.082;18.234;2023-10-31T01:00:11;98647.31;;;16.27;53.27
78584;BME280;67880;46.082;18.234;2023-10-31T01:00:43;98643.97;;;16.31;52.78
78584;BME280;67880;46.082;18.234;2023-10-31T01:01:15;98641.69;;;16.28;52.76
78584;BME280;67880;46.082;18.234;2023-10-31T01:01:47;98645.66;;;16.25;52.87
78584;BME280;67880;46.082;18.234;2023-10-31T01:02:19;98642.38;;;16.23;52.88
78584;BME280;67880;46.082;18.234;2023-10-31T01:02:51;98642.72;;;16.27;53.03
78584;BME280;67880;46.082;18.234;2023-10-31T01:03:24;98639.78;;;16.29;53.05
78584;BME280;67880;46.082;18.234;2023-10-31T01:03:56;98627.31;;;16.28;53.35
78584;BME280;67880;46.082;18.234;2023-10-31T01:04:28;98621.94;;;16.21;53.67
78584;BME280;67880;46.082;18.234;2023-10-31T01:05:00;98629.84;;;16.22;53.85
78584;BME280;67880;46.082;18.234;2023-10-31T01:05:32;98628.13;;;16.28;51.81
78584;BME280;67880;46.082;18.234;2023-10-31T01:06:04;98633.13;;;16.31;52.16
78584;BME280;67880;46.082;18.234;2023-10-31T01:06:42;98610.22;;;16.27;53.06
78584;BME280;67880;46.082;18.234;2023-10-31T01:07:14;98624.19;;;16.31;50.89
78584;BME280;67880;46.082;18.234;2023-10-31T01:07:48;98623.06;;;16.38;52.11
78584;BME280;67880;46.082;18.234;2023-10-31T01:08:20;98624.13;;;16.37;52.76
78584;BME280;67880;46.082;18.234;2023-10-31T01:08:52;98624.31;;;16.36;52.97
78584;BME280;67880;46.082;18.234;2023-10-31T01:09:24;98618.53;;;16.32;52.92
78584;BME280;67880;46.082;18.234;2023-10-31T01:09:56;98623.53;;;16.29;53.19
78584;BME280;67880;46.082;18.234;2023-10-31T01:10:28;98620.00;;;16.28;52.61
78584;BME280;67880;46.082;18.234;2023-10-31T01:11:00;98615.06;;;16.25;53.01
78584;BME280;67880;46.082;18.234;2023-10-31T01:11:32;98606.09;;;16.24;53.23
78584;BME280;67880;46.082;18.234;2023-10-31T01:12:05;98603.41;;;16.24;53.71
78584;BME280;67880;46.082;18.234;2023-10-31T01:12:37;98608.22;;;16.16;54.11
78584;BME280;67880;46.082;18.234;2023-10-31T01:13:09;98603.44;;;16.18;53.26
78584;BME280;67880;46.082;18.234;2023-10-31T01:13:41;98602.41;;;16.19;53.14
78584;BME280;67880;46.082;18.234;2023-10-31T01:14:13;98614.66;;;16.21;52.99
78584;BME280;67880;46.082;18.234;2023-10-31T01:14:45;98614.59;;;16.28;52.35
78584;BME280;67880;46.082;18.234;2023-10-31T01:15:17;98610.81;;;16.29;53.27
78584;BME280;67880;46.082;18.234;2023-10-31T01:15:49;98611.06;;;16.28;53.87
78584;BME280;67880;46.082;18.234;2023-10-31T01:16:21;98601.06;;;16.28;53.73
78584;BME280;67880;46.082;18.234;2023-10-31T01:16:53;98612.56;;;16.23;54.04
78584;BME280;67880;46.082;18.234;2023-10-31T01:17:25;98617.75;;;16.25;54.63
78584;BME280;67880;46.082;18.234;2023-10-31T01:17:57;98619.25;;;16.21;55.42
78584;BME280;67880;46.082;18.234;2023-10-31T01:18:29;98619.91;;;16.16;55.32
78584;BME280;67880;46.082;18.234;2023-10-31T01:19:00;98617.59;;;16.20;55.67
78584;BME280;67880;46.082;18.234;2023-10-31T01:19:33;98615.34;;;16.17;55.41
78584;BME280;67880;46.082;18.234;2023-10-31T01:20:06;98610.81;;;16.11;56.24
78584;BME280;67880;46.082;18.234;2023-10-31T01:20:38;98618.53;;;16.07;56.66
78584;BME280;67880;46.082;18.234;2023-10-31T01:21:10;98612.94;;;16.02;56.85
78584;BME280;67880;46.082;18.234;2023-10-31T01:21:42;98613.16;;;16.01;57.15
78584;BME280;67880;46.082;18.234;2023-10-31T01:22:14;98621.72;;;15.97;57.26
78584;BME280;67880;46.082;18.234;2023-10-31T01:22:46;98614.22;;;16.00;57.79
78584;BME280;67880;46.082;18.234;2023-10-31T01:23:18;98618.34;;;16.02;57.46
78584;BME280;67880;46.082;18.234;2023-10-31T01:23:50;98611.22;;;16.08;54.00
78584;BME280;67880;46.082;18.234;2023-10-31T01:24:22;98612.47;;;16.12;54.26
78584;BME280;67880;46.082;18.234;2023-10-31T01:24:55;98609.28;;;16.15;53.77
78584;BME280;67880;46.082;18.234;2023-10-31T01:25:27;98614.72;;;16.15;54.04
78584;BME280;67880;46.082;18.234;2023-10-31T01:25:59;98614.06;;;16.19;53.58
78584;BME280;67880;46.082;18.234;2023-10-31T01:26:31;98611.34;;;16.19;54.25
78584;BME280;67880;46.082;18.234;2023-10-31T01:27:03;98603.44;;;16.18;54.74
78584;BME280;67880;46.082;18.234;2023-10-31T01:27:35;98604.50;;;16.17;53.61
78584;BME280;67880;46.082;18.234;2023-10-31T01:28:07;98610.88;;;16.22;52.40
78584;BME280;67880;46.082;18.234;2023-10-31T01:28:39;98592.88;;;16.35;49.63
78584;BME280;67880;46.082;18.234;2023-10-31T01:29:11;98600.50;;;16.44;48.19
78584;BME280;67880;46.082;18.234;2023-10-31T01:29:43;98601.31;;;16.45;49.70
78584;BME280;67880;46.082;18.234;2023-10-31T01:30:15;98598.97;;;16.48;48.54
78584;BME280;67880;46.082;18.234;2023-10-31T01:30:47;98602.56;;;16.49;48.57
78584;BME280;67880;46.082;18.234;2023-10-31T01:31:19;98608.56;;;16.51;49.33
78584;BME280;67880;46.082;18.234;2023-10-31T01:31:51;98606.69;;;16.51;50.22
78584;BME280;67880;46.082;18.234;2023-10-31T01:32:31;98612.50;;;16.55;48.77
78584;BME280;67880;46.082;18.234;2023-10-31T01:33:04;98600.53;;;16.63;47.49
78584;BME280;67880;46.082;18.234;2023-10-31T01:33:36;98602.50;;;16.74;45.96
78584;BME280;67880;46.082;18.234;2023-10-31T01:34:08;98598.47;;;16.83;45.48
78584;BME280;67880;46.082;18.234;2023-10-31T01:34:40;98593.19;;;16.88;45.48
78584;BME280;67880;46.082;18.234;2023-10-31T01:35:12;98594.38;;;16.92;46.38
78584;BME280;67880;46.082;18.234;2023-10-31T01:35:45;98603.97;;;16.95;45.65
78584;BME280;67880;46.082;18.234;2023-10-31T01:36:17;98602.91;;;16.96;45.55
78584;BME280;67880;46.082;18.234;2023-10-31T01:36:49;98606.53;;;17.08;45.22
78584;BME280;67880;46.082;18.234;2023-10-31T01:37:21;98599.72;;;17.17;44.19
78584;BME280;67880;46.082;18.234;2023-10-31T01:37:53;98604.69;;;17.20;43.97
78584;BME280;67880;46.082;18.234;2023-10-31T01:38:26;98595.75;;;17.20;43.93
78584;BME280;67880;46.082;18.234;2023-10-31T01:38:58;98598.66;;;17.18;45.30
78584;BME280;67880;46.082;18.234;2023-10-31T01:39:30;98594.06;;;17.19;45.29
78584;BME280;67880;46.082;18.234;2023-10-31T01:40:03;98596.34;;;17.22;44.35
78584;BME280;67880;46.082;18.234;2023-10-31T01:40:35;98598.81;;;17.23;44.54
78584;BME280;67880;46.082;18.234;2023-10-31T01:41:07;98599.03;;;17.22;45.67
78584;BME280;67880;46.082;18.234;2023-10-31T01:41:42;98600.94;;;17.21;45.87
78584;BME280;67880;46.082;18.234;2023-10-31T01:42:15;98596.91;;;17.24;45.89
78584;BME280;67880;46.082;18.234;2023-10-31T01:42:47;98587.13;;;17.23;45.28
78584;BME280;67880;46.082;18.234;2023-10-31T01:43:32;98587.13;;;17.23;44.41
78584;BME280;67880;46.082;18.234;2023-10-31T01:44:04;98591.88;;;17.27;44.06
78584;BME280;67880;46.082;18.234;2023-10-31T01:44:36;98590.81;;;17.28;44.37
78584;BME280;67880;46.082;18.234;2023-10-31T01:45:09;98597.47;;;17.32;44.16
78584;BME280;67880;46.082;18.234;2023-10-31T01:45:41;98586.38;;;17.34;43.10
78584;BME280;67880;46.082;18.234;2023-10-31T01:46:13;98587.94;;;17.42;42.23
78584;BME280;67880;46.082;18.234;2023-10-31T01:46:45;98587.25;;;17.46;42.14
78584;BME280;67880;46.082;18.234;2023-10-31T01:47:16;98587.69;;;17.43;43.26
78584;BME280;67880;46.082;18.234;2023-10-31T01:47:49;98589.44;;;17.38;45.26
78584;BME280;67880;46.082;18.234;2023-10-31T01:48:21;98583.41;;;17.36;43.60
78584;BME280;67880;46.082;18.234;2023-10-31T01:48:55;98582.66;;;17.47;41.99
78584;BME280;67880;46.082;18.234;2023-10-31T01:49:27;98585.94;;;17.49;43.20
78584;BME280;67880;46.082;18.234;2023-10-31T01:49:59;98586.44;;;17.46;43.47
78584;BME280;67880;46.082;18.234;2023-10-31T01:50:32;98590.78;;;17.47;43.64
78584;BME280;67880;46.082;18.234;2023-10-31T01:51:04;98586.53;;;17.51;42.51
78584;BME280;67880;46.082;18.234;2023-10-31T01:51:36;98586.31;;;17.52;43.24
78584;BME280;67880;46.082;18.234;2023-10-31T01:52:09;98583.81;;;17.51;44.54
78584;BME280;67880;46.082;18.234;2023-10-31T01:52:41;98585.13;;;17.48;43.86
78584;BME280;67880;46.082;18.234;2023-10-31T01:53:13;98587.97;;;17.53;44.25
78584;BME280;67880;46.082;18.234;2023-10-31T01:53:47;98572.66;;;17.71;41.88
78584;BME280;67880;46.082;18.234;2023-10-31T01:54:19;98567.88;;;17.73;40.93
78584;BME280;67880;46.082;18.234;2023-10-31T01:54:51;98573.66;;;17.76;40.83
78584;BME280;67880;46.082;18.234;2023-10-31T01:55:24;98577.59;;;17.80;41.25
78584;BME280;67880;46.082;18.234;2023-10-31T01:56:00;98582.09;;;17.86;40.87
78584;BME280;67880;46.082;18.234;2023-10-31T01:56:33;98582.09;;;17.86;41.07
78584;BME280;67880;46.082;18.234;2023-10-31T01:57:06;98576.91;;;17.85;43.03
78584;BME280;67880;46.082;18.234;2023-10-31T01:57:38;98574.38;;;17.83;43.05
78584;BME280;67880;46.082;18.234;2023-10-31T01:58:10;98572.41;;;17.79;42.67
78584;BME280;67880;46.082;18.234;2023-10-31T01:58:43;98575.22;;;17.72;43.51
78584;BME280;67880;46.082;18.234;2023-10-31T01:59:15;98569.97;;;17.71;44.68
78584;BME280;67880;46.082;18.234;2023-10-31T01:59:47;98557.94;;;17.67;45.61
78584;BME280;67880;46.082;18.234;2023-10-31T02:00:19;98557.94;;;17.67;44.99
78584;BME280;67880;46.082;18.234;2023-10-31T02:00:51;98559.69;;;17.61;45.18
78584;BME280;67880;46.082;18.234;2023-10-31T02:01:23;98572.66;;;17.59;45.66
78584;BME280;67880;46.082;18.234;2023-10-31T02:01:57;98571.94;;;17.52;46.79
78584;BME280;67880;46.082;18.234;2023-10-31T02:02:32;98570.03;;;17.52;46.64
78584;BME280;67880;46.082;18.234;2023-10-31T02:03:06;98553.38;;;17.49;46.57
78584;BME280;67880;46.082;18.234;2023-10-31T02:03:39;98554.06;;;17.44;46.82
78584;BME280;67880;46.082;18.234;2023-10-31T02:04:11;98555.13;;;17.43;46.35
78584;BME280;67880;46.082;18.234;2023-10-31T02:04:44;98565.16;;;17.43;45.53
78584;BME280;67880;46.082;18.234;2023-10-31T02:05:16;98570.25;;;17.39;45.69
78584;BME280;67880;46.082;18.234;2023-10-31T02:05:51;98572.56;;;17.36;47.98
78584;BME280;67880;46.082;18.234;2023-10-31T02:06:23;98572.81;;;17.34;45.81
78584;BME280;67880;46.082;18.234;2023-10-31T02:06:55;98569.47;;;17.32;47.68
78584;BME280;67880;46.082;18.234;2023-10-31T02:07:27;98566.06;;;17.37;45.01
78584;BME280;67880;46.082;18.234;2023-10-31T02:07:59;98566.31;;;17.35;46.67
78584;BME280;67880;46.082;18.234;2023-10-31T02:08:31;98554.06;;;17.32;46.74
78584;BME280;67880;46.082;18.234;2023-10-31T02:09:03;98563.09;;;17.26;45.66
78584;BME280;67880;46.082;18.234;2023-10-31T02:09:35;98556.53;;;17.34;44.62
78584;BME280;67880;46.082;18.234;2023-10-31T02:10:07;98561.72;;;17.36;44.56
78584;BME280;67880;46.082;18.234;2023-10-31T02:10:39;98560.88;;;17.35;45.02
78584;BME280;67880;46.082;18.234;2023-10-31T02:11:12;98561.34;;;17.32;44.71
78584;BME280;67880;46.082;18.234;2023-10-31T02:11:43;98554.88;;;17.33;44.52
78584;BME280;67880;46.082;18.234;2023-10-31T02:12:32;98549.06;;;17.29;46.11
78584;BME280;67880;46.082;18.234;2023-10-31T02:13:14;98549.53;;;17.26;46.22
78584;BME280;67880;46.082;18.234;2023-10-31T02:13:46;98558.50;;;17.27;46.08
78584;BME280;67880;46.082;18.234;2023-10-31T02:14:19;98547.66;;;17.27;45.66
78584;BME280;67880;46.082;18.234;2023-10-31T02:14:50;98551.78;;;17.29;46.02
78584;BME280;67880;46.082;18.234;2023-10-31T02:15:22;98544.94;;;17.27;47.15
78584;BME280;67880;46.082;18.234;2023-10-31T02:15:54;98550.31;;;17.15;47.49
78584;BME280;67880;46.082;18.234;2023-10-31T02:16:26;98540.28;;;17.16;46.60
78584;BME280;67880;46.082;18.234;2023-10-31T02:16:59;98545.25;;;17.19;46.32
78584;BME280;67880;46.082;18.234;2023-10-31T02:17:31;98539.00;;;17.18;45.89
78584;BME280;67880;46.082;18.234;2023-10-31T02:18:03;98542.53;;;17.19;45.40
78584;BME280;67880;46.082;18.234;2023-10-31T02:18:35;98542.16;;;17.15;46.11
78584;BME280;67880;46.082;18.234;2023-10-31T02:19:07;98529.19;;;17.17;46.19
78584;BME280;67880;46.082;18.234;2023-10-31T02:19:40;98528.63;;;17.15;46.23
78584;BME280;67880;46.082;18.234;2023-10-31T02:20:12;98531.31;;;17.15;47.17
78584;BME280;67880;46.082;18.234;2023-10-31T02:20:44;98526.13;;;17.14;47.01
78584;BME280;67880;46.082;18.234;2023-10-31T02:21:19;98532.38;;;17.14;46.00
78584;BME280;67880;46.082;18.234;2023-10-31T02:21:51;98536.16;;;17.13;45.57
78584;BME280;67880;46.082;18.234;2023-10-31T02:22:23;98534.03;;;17.15;45.99
78584;BME280;67880;46.082;18.234;2023-10-31T02:22:55;98530.25;;;17.16;46.19
78584;BME280;67880;46.082;18.234;2023-10-31T02:23:27;98518.81;;;17.14;46.40
78584;BME280;67880;46.082;18.234;2023-10-31T02:24:01;98520.72;;;17.14;46.44
78584;BME280;67880;46.082;18.234;2023-10-31T02:24:33;98519.66;;;17.15;46.04
78584;BME280;67880;46.082;18.234;2023-10-31T02:25:25;98515.06;;;17.15;46.36
78584;BME280;67880;46.082;18.234;2023-10-31T02:25:57;98532.16;;;17.16;45.29
78584;BME280;67880;46.082;18.234;2023-10-31T02:26:34;98524.47;;;17.13;46.69
78584;BME280;67880;46.082;18.234;2023-10-31T02:27:06;98536.75;;;17.15;45.88
78584;BME280;67880;46.082;18.234;2023-10-31T02:27:38;98534.03;;;17.15;47.29
78584;BME280;67880;46.082;18.234;2023-10-31T02:28:10;98529.69;;;17.14;46.50
78584;BME280;67880;46.082;18.234;2023-10-31T02:28:42;98535.94;;;17.15;46.27
78584;BME280;67880;46.082;18.234;2023-10-31T02:29:14;98528.84;;;17.14;46.13
78584;BME280;67880;46.082;18.234;2023-10-31T02:29:46;98528.63;;;17.15;45.48
78584;BME280;67880;46.082;18.234;2023-10-31T02:30:18;98534.28;;;17.14;46.81
78584;BME280;67880;46.082;18.234;2023-10-31T02:30:50;98540.97;;;17.11;47.53
78584;BME280;67880;46.082;18.234;2023-10-31T02:31:22;98536.06;;;17.20;44.51
78584;BME280;67880;46.082;18.234;2023-10-31T02:31:54;98536.91;;;17.20;45.59
78584;BME280;67880;46.082;18.234;2023-10-31T02:32:27;98544.88;;;17.15;45.80
78584;BME280;67880;46.082;18.234;2023-10-31T02:33:00;98545.47;;;17.17;45.11
78584;BME280;67880;46.082;18.234;2023-10-31T02:33:33;98548.34;;;17.22;44.48
78584;BME280;67880;46.082;18.234;2023-10-31T02:34:04;98548.19;;;17.17;45.14
78584;BME280;67880;46.082;18.234;2023-10-31T02:34:37;98551.50;;;17.19;45.95
78584;BME280;67880;46.082;18.234;2023-10-31T02:35:09;98542.31;;;17.20;45.30
78584;BME280;67880;46.082;18.234;2023-10-31T02:35:41;98528.75;;;17.20;44.59
78584;BME280;67880;46.082;18.234;2023-10-31T02:36:13;98547.75;;;17.20;44.89
78584;BME280;67880;46.082;18.234;2023-10-31T02:36:45;98550.91;;;17.17;45.54
78584;BME280;67880;46.082;18.234;2023-10-31T02:37:17;98560.69;;;17.18;44.94
78584;BME280;67880;46.082;18.234;2023-10-31T02:37:49;98561.50;;;17.19;44.15
78584;BME280;67880;46.082;18.234;2023-10-31T02:38:21;98556.22;;;17.24;44.03
78584;BME280;67880;46.082;18.234;2023-10-31T02:38:53;98544.56;;;17.23;44.26
78584;BME280;67880;46.082;18.234;2023-10-31T02:39:25;98542.66;;;17.24;44.41
78584;BME280;67880;46.082;18.234;2023-10-31T02:39:57;98552.03;;;17.28;43.91
78584;BME280;67880;46.082;18.234;2023-10-31T02:40:30;98562.41;;;17.31;43.38
78584;BME280;67880;46.082;18.234;2023-10-31T02:41:02;98567.63;;;17.32;43.55
78584;BME280;67880;46.082;18.234;2023-10-31T02:41:34;98560.31;;;17.33;44.23
78584;BME280;67880;46.082;18.234;2023-10-31T02:42:06;98555.91;;;17.32;43.56
78584;BME280;67880;46.082;18.234;2023-10-31T02:42:38;98557.78;;;17.31;45.23
78584;BME280;67880;46.082;18.234;2023-10-31T02:43:10;98559.81;;;17.36;42.52
78584;BME280;67880;46.082;18.234;2023-10-31T02:43:42;98558.66;;;17.44;42.16
78584;BME280;67880;46.082;18.234;2023-10-31T02:44:15;98566.59;;;17.45;42.19
78584;BME280;67880;46.082;18.234;2023-10-31T02:44:47;98552.19;;;17.45;42.76
78584;BME280;67880;46.082;18.234;2023-10-31T02:45:19;98535.06;;;17.44;42.71
78584;BME280;67880;46.082;18.234;2023-10-31T02:45:51;98534.97;;;17.51;41.31
78584;BME280;67880;46.082;18.234;2023-10-31T02:46:23;98547.38;;;17.47;43.09
78584;BME280;67880;46.082;18.234;2023-10-31T02:46:55;98551.97;;;17.46;42.82
78584;BME280;67880;46.082;18.234;2023-10-31T02:47:27;98566.38;;;17.47;42.91
78584;BME280;67880;46.082;18.234;2023-10-31T02:47:59;98562.13;;;17.51;41.86
78584;BME280;67880;46.082;18.234;2023-10-31T02:48:32;98549.75;;;17.55;42.23
78584;BME280;67880;46.082;18.234;2023-10-31T02:49:09;98538.56;;;17.63;41.47
78584;BME280;67880;46.082;18.234;2023-10-31T02:49:41;98541.09;;;17.76;39.02